createdAt,value
2019-05-05T00:02:44.848Z,4.65
2019-05-05T00:05:26.905Z,4.67
2019-05-05T00:07:58.095Z,4.53
2019-05-05T00:10:38.876Z,4.08
2019-05-05T00:13:25.181Z,4.30
2019-05-05T00:16:07.135Z,4.55
2019-05-05T00:18:38.315Z,4.58
2019-05-05T00:21:14.984Z,4.62
2019-05-05T00:23:45.261Z,4.47
2019-05-05T00:28:48.046Z,4.53
2019-05-05T00:31:24.292Z,3.87
2019-05-05T00:33:57.325Z,4.72
2019-05-05T00:36:29.743Z,4.17
2019-05-05T00:39:04.303Z,4.10
2019-05-05T00:41:41.659Z,4.47
2019-05-05T00:44:18.305Z,4.40
2019-05-05T00:46:50.725Z,4.22
2019-05-05T00:49:37.403Z,4.33
2019-05-05T00:54:42.656Z,4.50
2019-05-05T00:57:20.264Z,4.10
2019-05-05T00:59:55.175Z,4.15
2019-05-05T01:02:41.693Z,3.72
2019-05-05T01:05:31.865Z,4.00
2019-05-05T01:08:09.157Z,4.30
2019-05-05T01:10:44.282Z,4.00
2019-05-05T01:13:19.223Z,4.00
2019-05-05T01:15:54.221Z,4.17
2019-05-05T01:18:27.904Z,3.95
2019-05-05T01:21:04.466Z,3.87
2019-05-05T01:23:39.166Z,4.30
2019-05-05T01:26:16.335Z,4.22
2019-05-05T01:28:46.645Z,3.98
2019-05-05T01:31:25.251Z,4.30
2019-05-05T01:34:01.245Z,4.10
2019-05-05T01:36:32.195Z,4.08
2019-05-05T01:39:25.202Z,4.33
2019-05-05T01:42:01.117Z,4.08
2019-05-05T01:44:35.099Z,4.00
2019-05-05T01:47:06.395Z,4.35
2019-05-05T01:49:41.175Z,3.87
2019-05-05T01:52:15.896Z,3.72
2019-05-05T01:54:48.183Z,4.00
2019-05-05T01:57:22.175Z,3.77
2019-05-05T01:59:50.965Z,3.83
2019-05-05T02:02:22.128Z,4.10
2019-05-05T02:04:52.745Z,3.80
2019-05-05T02:07:26.145Z,4.00
2019-05-05T02:10:00.145Z,3.87
2019-05-05T02:12:32.125Z,3.72
2019-05-05T02:15:10.543Z,3.75
2019-05-05T02:17:44.855Z,3.70
2019-05-05T02:20:36.215Z,3.77
2019-05-05T02:23:06.953Z,3.42
2019-05-05T02:28:16.915Z,3.55
2019-05-05T02:31:01.943Z,3.75
2019-05-05T02:33:36.817Z,3.75
2019-05-05T02:36:10.864Z,3.50
2019-05-05T02:38:47.160Z,3.80
2019-05-05T02:41:21.056Z,3.92
2019-05-05T02:43:49.826Z,3.62
2019-05-05T02:46:39.538Z,3.98
2019-05-05T02:49:15.053Z,3.52
2019-05-05T02:51:49.183Z,3.55
2019-05-05T02:54:25.382Z,3.47
2019-05-05T02:56:57.205Z,2.98
2019-05-05T02:59:35.282Z,3.50
2019-05-05T03:02:05.235Z,3.45
2019-05-05T03:04:44.246Z,3.40
2019-05-05T03:07:26.145Z,3.42
2019-05-05T03:10:03.573Z,3.55
2019-05-05T03:12:35.098Z,3.40
2019-05-05T03:15:08.485Z,3.45
2019-05-05T03:17:41.615Z,3.45
2019-05-05T03:20:14.433Z,3.37
2019-05-05T03:22:47.614Z,3.70
2019-05-05T03:25:16.395Z,3.20
2019-05-05T03:27:49.605Z,3.15
2019-05-05T03:30:26.105Z,3.22
2019-05-05T03:33:05.454Z,3.20
2019-05-05T03:38:09.146Z,3.30
2019-05-05T03:40:44.203Z,3.40
2019-05-05T03:43:37.135Z,2.95
2019-05-05T03:46:11.153Z,3.15
2019-05-05T03:48:46.187Z,3.20
2019-05-05T03:51:24.231Z,3.08
2019-05-05T03:53:58.227Z,3.10
2019-05-05T03:56:27.254Z,2.92
2019-05-05T03:58:58.323Z,3.20
2019-05-05T04:01:41.165Z,3.02
2019-05-05T04:04:33.435Z,2.87
2019-05-05T04:07:00.836Z,3.08
2019-05-05T04:09:34.601Z,2.83
2019-05-05T04:12:04.450Z,2.77
2019-05-05T04:14:38.176Z,2.85
2019-05-05T04:17:11.056Z,2.85
2019-05-05T04:19:49.256Z,3.00
2019-05-05T04:22:23.649Z,3.42
2019-05-05T04:24:55.296Z,2.98
2019-05-05T04:27:34.177Z,2.90
2019-05-05T04:30:09.295Z,2.98
2019-05-05T04:32:43.796Z,2.83
2019-05-05T04:35:14.375Z,2.95
2019-05-05T04:37:54.287Z,3.10
2019-05-05T04:40:26.566Z,2.72
2019-05-05T04:43:03.735Z,2.60
2019-05-05T04:45:37.172Z,2.90
2019-05-05T04:48:11.163Z,3.00
2019-05-05T04:50:45.125Z,2.72
2019-05-05T04:53:17.135Z,2.95
2019-05-05T04:55:53.478Z,2.85
2019-05-05T04:58:24.312Z,2.98
2019-05-05T05:00:58.155Z,2.65
2019-05-05T05:03:37.335Z,3.25
2019-05-05T05:06:16.215Z,2.50
2019-05-05T05:08:49.643Z,2.83
2019-05-05T05:11:24.541Z,2.65
2019-05-05T05:13:59.745Z,2.60
2019-05-05T05:16:36.245Z,2.62
2019-05-05T05:19:09.135Z,2.80
2019-05-05T05:21:58.418Z,2.92
2019-05-05T05:24:17.145Z,2.83
2019-05-05T05:26:55.536Z,2.45
2019-05-05T05:29:29.172Z,2.42
2019-05-05T05:32:04.091Z,2.87
2019-05-05T05:34:36.174Z,2.70
2019-05-05T05:37:09.755Z,2.62
2019-05-05T05:39:48.910Z,2.47
2019-05-05T05:42:26.283Z,2.50
2019-05-05T05:45:04.092Z,2.35
2019-05-05T05:47:59.695Z,2.25
2019-05-05T05:50:39.675Z,2.65
2019-05-05T05:53:08.486Z,2.70
2019-05-05T05:55:40.495Z,2.50
2019-05-05T05:58:18.785Z,2.55
2019-05-05T06:00:53.943Z,2.50
2019-05-05T06:03:27.136Z,2.10
2019-05-05T06:05:59.240Z,2.50
2019-05-05T06:08:34.708Z,2.40
2019-05-05T06:11:13.677Z,2.67
2019-05-05T06:13:44.003Z,2.37
2019-05-05T06:18:49.183Z,2.40
2019-05-05T06:21:24.173Z,2.20
2019-05-05T06:23:58.092Z,2.52
2019-05-05T06:26:30.465Z,2.20
2019-05-05T06:29:06.115Z,2.33
2019-05-05T06:31:46.255Z,2.20
2019-05-05T06:34:18.403Z,2.52
2019-05-05T06:36:50.305Z,2.27
2019-05-05T06:39:24.032Z,2.22
2019-05-05T06:41:57.193Z,2.15
2019-05-05T06:44:55.183Z,2.50
2019-05-05T06:47:28.195Z,2.27
2019-05-05T06:50:03.558Z,2.20
2019-05-05T06:52:44.285Z,2.00
2019-05-05T06:55:14.211Z,2.20
2019-05-05T06:57:44.434Z,2.33
2019-05-05T07:00:19.647Z,2.45
2019-05-05T07:02:57.725Z,2.02
2019-05-05T07:05:30.986Z,2.33
2019-05-05T07:08:04.238Z,2.30
2019-05-05T07:10:35.355Z,2.17
2019-05-05T07:13:09.775Z,2.05
2019-05-05T07:15:56.205Z,2.17
2019-05-05T07:18:28.693Z,2.30
2019-05-05T07:21:03.654Z,2.40
2019-05-05T07:23:34.256Z,2.30
2019-05-05T07:26:08.564Z,2.22
2019-05-05T07:28:40.816Z,2.30
2019-05-05T07:31:09.835Z,2.00
2019-05-05T07:33:39.926Z,2.10
2019-05-05T07:36:18.973Z,2.12
2019-05-05T07:38:49.895Z,2.05
2019-05-05T07:43:51.325Z,2.17
2019-05-05T07:46:23.981Z,2.30
2019-05-05T07:48:58.280Z,2.33
2019-05-05T07:51:30.755Z,2.05
2019-05-05T07:54:03.640Z,2.00
2019-05-05T07:56:34.204Z,1.95
2019-05-05T07:59:05.449Z,2.10
2019-05-05T08:01:44.330Z,2.42
2019-05-05T08:04:16.725Z,2.40
2019-05-05T08:06:47.905Z,1.90
2019-05-05T08:09:21.776Z,2.00
2019-05-05T08:11:54.172Z,2.15
2019-05-05T08:14:26.195Z,2.02
2019-05-05T08:17:04.266Z,2.00
2019-05-05T08:19:54.336Z,2.40
2019-05-05T08:22:25.115Z,2.20
2019-05-05T08:25:00.255Z,1.85
2019-05-05T08:27:50.856Z,1.92
2019-05-05T08:30:38.793Z,2.08
2019-05-05T08:33:10.135Z,1.90
2019-05-05T08:35:38.905Z,2.10
2019-05-05T08:38:09.866Z,2.00
2019-05-05T08:40:39.165Z,1.90
2019-05-05T08:43:09.795Z,2.27
2019-05-05T08:45:44.202Z,1.80
2019-05-05T08:48:14.182Z,2.00
2019-05-05T08:50:47.537Z,1.80
2019-05-05T08:53:17.376Z,2.08
2019-05-05T08:55:49.807Z,1.90
2019-05-05T08:58:25.564Z,2.22
2019-05-05T09:00:56.327Z,1.80
2019-05-05T09:05:57.981Z,1.80
2019-05-05T09:08:28.185Z,1.80
2019-05-05T09:10:58.716Z,1.60
2019-05-05T09:13:29.169Z,1.80
2019-05-05T09:15:59.875Z,1.80
2019-05-05T09:18:33.784Z,1.80
2019-05-05T09:21:04.413Z,1.60
2019-05-05T09:23:35.458Z,1.65
2019-05-05T09:26:17.896Z,1.52
2019-05-05T09:28:51.085Z,1.77
2019-05-05T09:31:19.851Z,2.00
2019-05-05T09:33:48.756Z,1.55
2019-05-05T09:36:19.375Z,1.75
2019-05-05T09:38:51.235Z,1.82
2019-05-05T09:41:20.055Z,1.50
2019-05-05T09:43:48.835Z,1.40
2019-05-05T09:46:17.805Z,1.55
2019-05-05T09:48:46.635Z,1.50
2019-05-05T09:51:15.605Z,1.60
2019-05-05T09:53:45.606Z,1.32
2019-05-05T09:56:16.145Z,1.90
2019-05-05T09:58:44.814Z,1.50
2019-05-05T10:01:14.155Z,1.50
2019-05-05T10:03:44.701Z,1.40
2019-05-05T10:06:14.231Z,1.50
2019-05-05T10:08:44.670Z,1.50
2019-05-05T10:11:17.155Z,1.62
2019-05-05T10:13:46.275Z,1.50
2019-05-05T10:16:15.157Z,1.67
2019-05-05T10:18:44.920Z,1.30
2019-05-05T10:21:17.858Z,1.22
2019-05-05T10:23:49.535Z,1.47
2019-05-05T10:26:19.938Z,1.40
2019-05-05T10:28:49.015Z,1.55
2019-05-05T10:31:18.005Z,1.62
2019-05-05T10:33:50.619Z,1.47
2019-05-05T10:36:19.575Z,1.30
2019-05-05T10:38:49.655Z,1.42
2019-05-05T10:41:18.464Z,1.10
2019-05-05T10:43:48.646Z,1.62
2019-05-05T10:46:17.598Z,1.47
2019-05-05T10:48:46.625Z,1.30
2019-05-05T10:51:16.555Z,1.27
2019-05-05T10:53:45.295Z,1.50
2019-05-05T10:56:16.913Z,1.82
2019-05-05T10:58:45.426Z,1.50
2019-05-05T11:01:14.598Z,1.40
2019-05-05T11:03:44.635Z,1.60
2019-05-05T11:06:15.185Z,1.80
2019-05-05T11:08:45.133Z,1.45
2019-05-05T11:11:14.385Z,1.72
2019-05-05T11:13:45.573Z,1.50
2019-05-05T11:16:14.569Z,1.40
2019-05-05T11:18:44.536Z,1.50
2019-05-05T11:21:17.950Z,1.60
2019-05-05T11:23:48.404Z,1.55
2019-05-05T11:26:21.627Z,1.35
2019-05-05T11:28:57.413Z,1.47
2019-05-05T11:31:29.885Z,1.47
2019-05-05T11:34:02.707Z,1.70
2019-05-05T11:36:34.553Z,1.60
2019-05-05T11:39:04.926Z,1.62
2019-05-05T11:41:38.854Z,1.55
2019-05-05T11:44:12.571Z,1.65
2019-05-05T11:46:47.905Z,1.40
2019-05-05T11:49:18.414Z,1.32
2019-05-05T11:51:50.044Z,1.40
2019-05-05T11:54:20.860Z,1.30
2019-05-05T11:56:53.880Z,1.30
2019-05-05T11:59:26.695Z,1.50
2019-05-05T12:01:55.249Z,1.52
2019-05-05T12:04:24.125Z,1.50
2019-05-05T12:06:55.925Z,2.08
2019-05-05T12:09:27.844Z,1.65
2019-05-05T12:12:00.407Z,1.52
2019-05-05T12:14:30.614Z,1.50
2019-05-05T12:17:04.513Z,1.40
2019-05-05T12:19:33.631Z,1.65
2019-05-05T12:22:05.347Z,1.40
2019-05-05T12:24:37.126Z,1.57
2019-05-05T12:27:16.645Z,1.30
2019-05-05T12:29:46.935Z,1.40
2019-05-05T12:32:17.325Z,1.40
2019-05-05T12:34:47.861Z,1.60
2019-05-05T12:37:16.655Z,1.22
2019-05-05T12:39:46.953Z,1.67
2019-05-05T12:42:17.397Z,1.42
2019-05-05T12:44:47.927Z,1.60
2019-05-05T12:47:18.207Z,1.20
2019-05-05T12:49:46.996Z,1.40
2019-05-05T12:52:16.326Z,1.55
2019-05-05T12:54:46.655Z,1.30
2019-05-05T12:57:15.724Z,1.42
2019-05-05T12:59:45.255Z,1.25
2019-05-05T13:02:14.370Z,1.20
2019-05-05T13:04:47.636Z,1.50
2019-05-05T13:07:17.534Z,1.35
2019-05-05T13:09:46.264Z,1.20
2019-05-05T13:12:15.176Z,1.57
2019-05-05T13:14:46.864Z,1.37
2019-05-05T13:17:20.787Z,1.30
2019-05-05T13:19:51.996Z,1.20
2019-05-05T13:22:28.095Z,1.10
2019-05-05T13:24:58.575Z,1.65
2019-05-05T13:27:28.918Z,1.22
2019-05-05T13:29:57.615Z,1.90
2019-05-05T13:32:28.983Z,1.60
2019-05-05T13:34:59.477Z,1.62
2019-05-05T13:37:28.385Z,1.65
2019-05-05T13:39:57.498Z,1.30
2019-05-05T13:42:27.805Z,1.40
2019-05-05T13:45:10.353Z,1.20
2019-05-05T13:47:39.415Z,1.40
2019-05-05T13:50:11.625Z,1.32
2019-05-05T13:52:44.095Z,1.40
2019-05-05T13:55:13.872Z,1.20
2019-05-05T13:57:44.597Z,1.30
2019-05-05T14:00:16.555Z,1.30
2019-05-05T14:02:45.333Z,1.10
2019-05-05T14:05:14.445Z,1.30
2019-05-05T14:07:44.545Z,1.40
2019-05-05T14:10:14.966Z,1.30
2019-05-05T14:12:43.881Z,1.45
2019-05-05T14:15:17.891Z,1.35
2019-05-05T14:17:49.666Z,1.20
2019-05-05T14:20:24.197Z,1.20
2019-05-05T14:22:58.094Z,1.20
2019-05-05T14:25:30.766Z,1.40
2019-05-05T14:27:59.635Z,1.40
2019-05-05T14:30:47.226Z,1.50
2019-05-05T14:33:20.079Z,1.20
2019-05-05T14:36:04.776Z,1.52
2019-05-05T14:38:36.865Z,1.80
2019-05-05T14:41:08.975Z,1.55
2019-05-05T14:43:38.965Z,1.27
2019-05-05T14:46:10.637Z,1.43
2019-05-05T14:48:39.433Z,1.42
2019-05-05T14:51:14.399Z,1.67
2019-05-05T14:53:43.715Z,1.40
2019-05-05T14:56:14.903Z,2.08
2019-05-05T14:58:46.395Z,1.90
2019-05-05T15:01:17.816Z,1.72
2019-05-05T15:03:53.434Z,1.50
2019-05-05T15:06:26.845Z,1.52
2019-05-05T15:08:58.814Z,1.70
2019-05-05T15:11:44.375Z,1.70
2019-05-05T15:14:14.407Z,1.52
2019-05-05T15:16:44.036Z,1.75
2019-05-05T15:19:18.763Z,1.67
2019-05-05T15:21:53.629Z,1.40
2019-05-05T15:24:28.195Z,1.62
2019-05-05T15:27:00.776Z,1.62
2019-05-05T15:29:34.695Z,1.55
2019-05-05T15:32:05.460Z,1.60
2019-05-05T15:34:34.515Z,1.42
2019-05-05T15:37:06.988Z,1.60
2019-05-05T15:39:36.100Z,1.60
2019-05-05T15:42:06.205Z,1.45
2019-05-05T15:44:36.315Z,1.55
2019-05-05T15:47:05.114Z,1.60
2019-05-05T15:49:34.525Z,1.65
2019-05-05T15:52:04.498Z,1.50
2019-05-05T15:54:33.965Z,1.57
2019-05-05T15:57:06.268Z,1.47
2019-05-05T15:59:34.303Z,1.65
2019-05-05T16:02:04.252Z,1.90
2019-05-05T16:04:34.815Z,1.80
2019-05-05T16:07:04.917Z,1.60
2019-05-05T16:09:33.525Z,1.47
2019-05-05T16:12:03.656Z,1.60
2019-05-05T16:14:35.295Z,1.77
2019-05-05T16:17:13.671Z,1.40
2019-05-05T16:19:46.133Z,1.60
2019-05-05T16:22:17.591Z,1.40
2019-05-05T16:24:51.391Z,1.82
2019-05-05T16:27:22.191Z,1.50
2019-05-05T16:32:22.063Z,1.55
2019-05-05T16:34:49.385Z,1.55
2019-05-05T16:37:17.977Z,1.50
2019-05-05T16:39:46.855Z,1.22
2019-05-05T16:42:16.955Z,1.30
2019-05-05T16:44:45.945Z,1.50
2019-05-05T16:47:15.844Z,1.40
2019-05-05T16:49:44.548Z,1.50
2019-05-05T16:52:15.275Z,1.37
2019-05-05T16:54:45.915Z,1.55
2019-05-05T16:57:14.685Z,1.40
2019-05-05T16:59:44.199Z,1.50
2019-05-05T17:02:13.959Z,1.32
2019-05-05T17:04:43.389Z,1.60
2019-05-05T17:07:14.150Z,1.62
2019-05-05T17:09:43.810Z,1.50
2019-05-05T17:12:14.121Z,1.40
2019-05-05T17:15:04.899Z,1.42
2019-05-05T17:17:54.030Z,1.40
2019-05-05T17:20:33.654Z,1.35
2019-05-05T17:23:10.205Z,1.70
2019-05-05T17:25:45.004Z,1.40
2019-05-05T17:28:13.743Z,1.10
2019-05-05T17:30:43.646Z,1.60
2019-05-05T17:33:14.368Z,1.47
2019-05-05T17:35:44.245Z,1.40
2019-05-05T17:38:14.876Z,1.30
2019-05-05T17:40:45.265Z,1.60
2019-05-05T17:43:25.146Z,1.50
2019-05-05T17:45:56.954Z,1.40
2019-05-05T17:48:31.455Z,1.95
2019-05-05T17:51:19.265Z,1.60
2019-05-05T17:53:54.487Z,1.30
2019-05-05T17:56:23.875Z,1.40
2019-05-05T17:58:53.787Z,2.00
2019-05-05T18:01:23.852Z,1.50
2019-05-05T18:03:54.507Z,1.60
2019-05-05T18:06:43.934Z,1.40
2019-05-05T18:09:27.516Z,1.22
2019-05-05T18:11:57.636Z,1.47
2019-05-05T18:14:33.521Z,1.45
2019-05-05T18:17:04.234Z,1.72
2019-05-05T18:22:04.735Z,1.42
2019-05-05T18:24:33.737Z,1.92
2019-05-05T18:27:04.546Z,1.45
2019-05-05T18:32:04.330Z,1.20
2019-05-05T18:34:35.030Z,1.60
2019-05-05T18:39:54.710Z,1.42
2019-05-05T18:42:24.698Z,1.75
2019-05-05T18:47:54.265Z,1.50
2019-05-05T18:50:26.652Z,1.52
2019-05-05T18:52:58.385Z,1.70
2019-05-05T18:55:37.015Z,1.67
2019-05-05T18:58:08.062Z,1.80
2019-05-05T19:00:38.525Z,1.77
2019-05-05T19:03:18.589Z,1.60
2019-05-05T19:05:53.975Z,1.82
2019-05-05T19:08:25.284Z,2.45
2019-05-05T19:10:58.553Z,1.67
2019-05-05T19:13:30.699Z,1.45
2019-05-05T19:16:03.667Z,2.10
2019-05-05T19:18:34.038Z,1.90
2019-05-05T19:21:14.255Z,2.00
2019-05-05T19:23:44.672Z,2.37
2019-05-05T19:26:18.075Z,1.92
2019-05-05T19:28:54.588Z,1.85
2019-05-05T19:31:23.754Z,2.15
2019-05-05T19:33:55.938Z,2.08
2019-05-05T19:36:27.506Z,2.20
2019-05-05T19:39:04.081Z,2.25
2019-05-05T19:41:34.775Z,1.98
2019-05-05T19:44:14.548Z,1.98
2019-05-05T19:46:52.044Z,1.90
2019-05-05T19:49:26.144Z,2.12
2019-05-05T19:51:55.054Z,2.00
2019-05-05T19:54:25.744Z,1.82
2019-05-05T19:56:54.486Z,2.27
2019-05-05T19:59:29.055Z,1.95
2019-05-05T20:02:00.535Z,2.17
2019-05-05T20:04:30.215Z,2.30
2019-05-05T20:07:00.965Z,2.20
2019-05-05T20:11:59.355Z,2.15
2019-05-05T20:14:30.845Z,2.25
2019-05-05T20:17:01.325Z,2.30
2019-05-05T20:19:34.193Z,2.40
2019-05-05T20:22:03.127Z,2.80
2019-05-05T20:24:33.732Z,2.75
2019-05-05T20:27:04.976Z,2.70
2019-05-05T20:29:37.581Z,3.10
2019-05-05T20:32:13.757Z,3.08
2019-05-05T20:34:48.225Z,3.27
2019-05-05T20:37:31.196Z,2.90
2019-05-05T20:40:03.975Z,2.83
2019-05-05T20:42:36.925Z,2.95
2019-05-05T20:45:07.795Z,3.83
2019-05-05T20:50:17.415Z,3.12
2019-05-05T20:52:46.485Z,3.20
2019-05-05T20:55:15.615Z,2.77
2019-05-05T20:57:47.183Z,3.05
2019-05-05T21:00:18.336Z,3.20
2019-05-05T21:02:47.045Z,2.90
2019-05-05T21:05:24.134Z,3.30
2019-05-05T21:08:00.754Z,3.35
2019-05-05T21:10:31.503Z,2.92
2019-05-05T21:15:34.050Z,2.60
2019-05-05T21:18:04.941Z,2.83
2019-05-05T21:20:35.863Z,3.25
2019-05-05T21:23:20.942Z,3.17
2019-05-05T21:25:57.375Z,3.10
2019-05-05T21:28:28.154Z,3.30
2019-05-05T21:30:57.385Z,3.08
2019-05-05T21:33:35.825Z,2.95
2019-05-05T21:36:06.980Z,2.90
2019-05-05T21:38:43.819Z,3.00
2019-05-05T21:41:13.668Z,2.90
2019-05-05T21:49:46.135Z,2.75
2019-05-05T21:52:26.135Z,2.83
2019-05-05T21:55:09.155Z,2.70
2019-05-05T21:57:59.964Z,2.83
2019-05-05T22:00:44.137Z,2.87
2019-05-05T22:03:14.053Z,2.80
2019-05-05T22:05:46.244Z,2.90
2019-05-05T22:08:14.725Z,3.02
2019-05-05T22:10:44.075Z,2.80
2019-05-05T22:13:16.902Z,3.10
2019-05-05T22:15:45.774Z,3.10
2019-05-05T22:18:16.736Z,3.00
2019-05-05T22:21:00.675Z,3.08
2019-05-05T22:23:29.934Z,2.80
2019-05-05T22:26:04.134Z,3.30
2019-05-05T22:28:36.114Z,3.22
2019-05-05T22:31:04.886Z,2.80
2019-05-05T22:33:38.727Z,3.10
2019-05-05T22:36:10.256Z,3.10
2019-05-05T22:38:41.784Z,3.02
2019-05-05T22:41:19.313Z,2.72
2019-05-05T22:43:53.416Z,2.95
2019-05-05T22:46:25.175Z,3.10
2019-05-05T22:48:58.155Z,2.92
2019-05-05T22:51:38.055Z,2.90
2019-05-05T22:54:14.727Z,2.70
2019-05-05T22:56:46.263Z,2.50
2019-05-05T22:59:23.200Z,2.85
2019-05-05T23:01:56.385Z,3.05
2019-05-05T23:04:34.783Z,2.85
2019-05-05T23:07:29.223Z,2.67
2019-05-05T23:10:04.577Z,3.15
2019-05-05T23:12:38.044Z,2.80
2019-05-05T23:15:10.129Z,2.85
2019-05-05T23:17:57.245Z,2.80
2019-05-05T23:20:53.808Z,2.72
2019-05-05T23:23:29.415Z,2.72
2019-05-05T23:26:06.895Z,2.65
2019-05-05T23:28:44.259Z,2.90
2019-05-05T23:31:19.244Z,2.60
2019-05-05T23:33:54.889Z,2.87
2019-05-05T23:36:33.815Z,2.90
2019-05-05T23:39:04.455Z,2.85
2019-05-05T23:41:44.103Z,2.50
2019-05-05T23:44:16.705Z,2.58
2019-05-05T23:46:50.765Z,2.98
2019-05-05T23:49:24.916Z,2.87
2019-05-05T23:52:00.133Z,2.72
2019-05-05T23:54:29.195Z,2.45
2019-05-05T23:57:00.277Z,2.87
2019-05-05T23:59:34.295Z,2.72
